createdAt,value
2018-01-20T00:00:10.873Z,11.43
2018-01-20T00:02:38.386Z,7.87
2018-01-20T00:05:05.877Z,11.67
2018-01-20T00:07:33.389Z,8.77
2018-01-20T00:10:14.682Z,8.20
2018-01-20T00:12:42.198Z,10.53
2018-01-20T00:15:10.458Z,10.30
2018-01-20T00:17:38.742Z,12.23
2018-01-20T00:20:06.993Z,8.33
2018-01-20T00:22:34.503Z,8.60
2018-01-20T00:25:02.794Z,8.77
2018-01-20T00:27:35.918Z,7.53
2018-01-20T00:30:03.405Z,7.60
2018-01-20T00:32:31.657Z,8.67
2018-01-20T00:34:59.166Z,8.00
2018-01-20T00:37:26.650Z,7.93
2018-01-20T00:39:54.157Z,7.07
2018-01-20T00:42:22.405Z,7.67
2018-01-20T00:44:49.915Z,8.60
2018-01-20T00:47:17.402Z,8.00
2018-01-20T00:49:44.885Z,8.60
2018-01-20T00:52:12.393Z,6.83
2018-01-20T00:54:39.877Z,7.47
2018-01-20T00:57:07.387Z,8.73
2018-01-20T00:59:35.641Z,7.27
2018-01-20T01:02:03.893Z,6.47
2018-01-20T01:04:31.405Z,7.03
2018-01-20T01:06:58.894Z,6.90
2018-01-20T01:09:26.405Z,6.20
2018-01-20T01:11:54.661Z,8.20
2018-01-20T01:14:22.177Z,7.93
2018-01-20T01:16:49.665Z,6.60
2018-01-20T01:19:17.154Z,6.73
2018-01-20T01:21:45.429Z,7.90
2018-01-20T01:24:13.682Z,7.17
2018-01-20T01:26:41.194Z,8.63
2018-01-20T01:29:08.682Z,6.80
2018-01-20T01:31:36.166Z,7.17
2018-01-20T01:34:03.686Z,6.07
2018-01-20T01:36:31.178Z,6.97
2018-01-20T01:38:58.685Z,7.73
2018-01-20T01:41:26.177Z,6.67
2018-01-20T01:43:53.688Z,6.00
2018-01-20T01:46:21.182Z,9.93
2018-01-20T01:48:48.689Z,6.60
2018-01-20T01:51:16.939Z,7.63
2018-01-20T01:53:44.449Z,6.53
2018-01-20T01:56:11.942Z,6.90
2018-01-20T01:58:39.426Z,6.07
2018-01-20T02:01:06.937Z,5.83
2018-01-20T02:03:34.426Z,8.20
2018-01-20T02:06:01.942Z,7.10
2018-01-20T02:08:29.430Z,6.13
2018-01-20T02:10:56.938Z,8.20
2018-01-20T02:13:25.190Z,9.30
2018-01-20T02:15:52.681Z,9.80
2018-01-20T02:18:20.185Z,6.27
2018-01-20T02:20:47.670Z,6.00
2018-01-20T02:23:15.954Z,6.33
2018-01-20T02:25:44.210Z,5.87
2018-01-20T02:28:11.693Z,9.07
2018-01-20T02:30:39.970Z,5.90
2018-01-20T02:33:08.221Z,5.70
2018-01-20T02:35:36.493Z,6.23
2018-01-20T02:38:03.977Z,6.17
2018-01-20T02:40:32.253Z,6.00
2018-01-20T02:43:00.506Z,6.17
2018-01-20T02:45:28.014Z,6.50
2018-01-20T02:47:55.502Z,6.07
2018-01-20T02:50:23.014Z,6.13
2018-01-20T02:52:51.341Z,6.17
2018-01-20T02:55:18.826Z,6.00
2018-01-20T02:57:46.337Z,7.10
2018-01-20T03:00:13.827Z,7.73
2018-01-20T03:02:41.318Z,6.27
2018-01-20T03:05:09.594Z,5.57
2018-01-20T03:07:37.851Z,6.27
2018-01-20T03:10:05.337Z,6.17
2018-01-20T03:12:32.854Z,6.33
2018-01-20T03:15:00.342Z,8.07
2018-01-20T03:17:28.593Z,8.83
2018-01-20T03:19:56.101Z,7.47
2018-01-20T03:22:23.590Z,6.27
2018-01-20T03:24:51.097Z,6.47
2018-01-20T03:27:19.354Z,5.80
2018-01-20T03:29:46.843Z,6.20
2018-01-20T03:32:14.357Z,6.53
2018-01-20T03:34:41.846Z,6.60
2018-01-20T03:37:10.097Z,8.47
2018-01-20T03:39:37.605Z,12.50
2018-01-20T03:42:05.089Z,12.47
2018-01-20T03:44:32.597Z,9.90
2018-01-20T03:47:00.848Z,9.20
2018-01-20T03:49:28.333Z,10.27
2018-01-20T03:51:55.845Z,8.17
2018-01-20T03:54:23.329Z,7.40
2018-01-20T03:56:51.609Z,8.77
2018-01-20T03:59:19.862Z,8.97
2018-01-20T04:01:47.370Z,14.00
2018-01-20T04:04:14.854Z,7.57
2018-01-20T04:06:42.341Z,10.20
2018-01-20T04:09:09.857Z,10.40
2018-01-20T04:11:37.351Z,12.43
2018-01-20T04:14:04.858Z,11.63
2018-01-20T04:16:32.365Z,9.33
2018-01-20T04:18:59.859Z,12.93
2018-01-20T04:21:28.137Z,10.10
2018-01-20T04:23:56.393Z,9.97
2018-01-20T04:26:23.901Z,10.73
2018-01-20T04:28:51.389Z,7.33
2018-01-20T04:31:18.882Z,6.83
2018-01-20T04:33:47.164Z,8.70
2018-01-20T04:36:15.415Z,6.97
2018-01-20T04:38:42.906Z,7.13
2018-01-20T04:41:10.417Z,6.87
2018-01-20T04:43:37.901Z,7.37
2018-01-20T04:46:05.405Z,6.50
2018-01-20T04:48:32.893Z,10.27
2018-01-20T04:51:00.378Z,5.53
2018-01-20T04:53:28.654Z,6.23
2018-01-20T04:55:56.907Z,7.03
2018-01-20T04:58:24.389Z,6.50
2018-01-20T05:00:52.661Z,5.40
2018-01-20T05:03:20.145Z,6.30
2018-01-20T05:05:47.649Z,7.50
2018-01-20T05:08:15.129Z,7.93
2018-01-20T05:10:42.612Z,5.07
2018-01-20T05:13:10.885Z,5.23
2018-01-20T05:15:39.148Z,5.70
2018-01-20T05:18:07.425Z,6.53
2018-01-20T05:20:35.673Z,6.10
2018-01-20T05:23:03.157Z,5.33
2018-01-20T05:25:31.429Z,5.43
2018-01-20T05:27:58.913Z,5.27
2018-01-20T05:30:26.418Z,5.27
2018-01-20T05:32:53.905Z,5.97
2018-01-20T05:35:22.158Z,5.00
2018-01-20T05:37:49.669Z,5.57
2018-01-20T05:40:17.157Z,5.87
2018-01-20T05:42:44.666Z,5.27
2018-01-20T05:45:12.915Z,5.30
2018-01-20T05:47:40.402Z,5.67
2018-01-20T05:50:08.677Z,4.60
2018-01-20T05:52:36.930Z,5.50
2018-01-20T05:55:04.412Z,4.77
2018-01-20T05:57:32.686Z,4.77
2018-01-20T06:00:00.937Z,4.50
2018-01-20T06:02:28.421Z,4.20
2018-01-20T06:04:56.693Z,4.20
2018-01-20T06:07:24.945Z,4.10
2018-01-20T06:09:52.430Z,4.43
2018-01-20T06:12:20.705Z,4.27
2018-01-20T06:14:48.953Z,4.03
2018-01-20T06:17:16.437Z,5.50
2018-01-20T06:19:44.708Z,3.70
2018-01-20T06:22:12.958Z,3.53
2018-01-20T06:24:40.441Z,3.30
2018-01-20T06:27:08.713Z,3.33
2018-01-20T06:29:36.965Z,3.43
2018-01-20T06:32:04.453Z,3.03
2018-01-20T06:34:32.725Z,3.30
2018-01-20T06:37:00.977Z,2.60
2018-01-20T06:39:28.461Z,2.53
2018-01-20T06:41:56.733Z,2.97
2018-01-20T06:44:24.222Z,2.37
2018-01-20T06:46:51.729Z,2.43
2018-01-20T06:49:19.209Z,2.70
2018-01-20T06:51:47.466Z,2.80
2018-01-20T06:54:14.977Z,2.53
2018-01-20T06:56:42.470Z,2.97
2018-01-20T06:59:09.952Z,3.20
2018-01-20T07:01:37.461Z,2.50
2018-01-20T07:04:04.949Z,3.90
2018-01-20T07:06:32.447Z,2.17
2018-01-20T07:09:00.729Z,2.50
2018-01-20T07:11:28.213Z,2.30
2018-01-20T07:13:55.701Z,2.50
2018-01-20T07:16:23.205Z,2.30
2018-01-20T07:18:50.690Z,2.17
2018-01-20T07:21:18.200Z,10.33
2018-01-20T07:23:46.449Z,5.70
2018-01-20T07:26:13.958Z,8.83
2018-01-20T07:28:41.449Z,27.80
2018-01-20T07:31:08.937Z,6.13
2018-01-20T07:33:36.445Z,2.67
2018-01-20T07:36:03.929Z,3.60
2018-01-20T07:38:31.442Z,2.80
2018-01-20T07:40:59.688Z,2.90
2018-01-20T07:43:27.169Z,3.27
2018-01-20T07:45:55.441Z,5.30
2018-01-20T07:48:23.695Z,2.20
2018-01-20T07:50:51.202Z,2.53
2018-01-20T07:53:18.685Z,2.47
2018-01-20T07:55:46.173Z,2.50
2018-01-20T07:58:13.685Z,2.80
2018-01-20T08:00:41.212Z,2.30
2018-01-20T08:03:08.698Z,2.13
2018-01-20T08:05:36.186Z,4.30
2018-01-20T08:08:03.696Z,3.47
2018-01-20T08:10:31.173Z,3.13
2018-01-20T08:12:58.662Z,3.00
2018-01-20T08:15:26.170Z,3.23
2018-01-20T08:17:53.657Z,3.20
2018-01-20T08:20:21.174Z,38.57
2018-01-20T08:22:49.421Z,4.97
2018-01-20T08:25:16.926Z,3.73
2018-01-20T08:27:44.413Z,4.10
2018-01-20T08:30:11.897Z,3.37
2018-01-20T08:32:39.405Z,3.73
2018-01-20T08:35:06.890Z,4.37
2018-01-20T08:37:34.400Z,3.80
2018-01-20T08:40:02.653Z,3.40
2018-01-20T08:42:30.147Z,3.63
2018-01-20T08:44:57.660Z,3.20
2018-01-20T08:47:25.150Z,3.43
2018-01-20T08:49:53.426Z,3.80
2018-01-20T08:52:21.685Z,3.40
2018-01-20T08:54:49.172Z,4.17
2018-01-20T08:57:16.684Z,9.33
2018-01-20T08:59:44.170Z,8.23
2018-01-20T09:02:12.442Z,5.27
2018-01-20T09:04:40.694Z,5.70
2018-01-20T09:07:08.181Z,5.00
2018-01-20T09:09:36.457Z,4.80
2018-01-20T09:12:04.713Z,5.17
2018-01-20T09:14:32.218Z,7.30
2018-01-20T09:16:59.701Z,5.50
2018-01-20T09:19:27.194Z,6.43
2018-01-20T09:21:54.701Z,5.13
2018-01-20T09:24:22.189Z,4.67
2018-01-20T09:26:49.677Z,6.27
2018-01-20T09:29:17.949Z,6.93
2018-01-20T09:31:45.435Z,4.93
2018-01-20T09:34:12.958Z,5.77
2018-01-20T09:36:40.440Z,6.23
2018-01-20T09:39:08.693Z,4.37
2018-01-20T09:41:36.200Z,8.37
2018-01-20T09:44:03.690Z,6.50
2018-01-20T09:46:31.194Z,4.33
2018-01-20T09:48:59.449Z,5.30
2018-01-20T09:51:26.942Z,5.53
2018-01-20T09:53:54.453Z,4.57
2018-01-20T09:56:21.938Z,4.97
2018-01-20T09:58:50.184Z,5.60
2018-01-20T10:01:17.690Z,3.93
2018-01-20T10:03:45.174Z,3.87
2018-01-20T10:06:12.689Z,3.83
2018-01-20T10:08:40.938Z,3.80
2018-01-20T10:11:08.422Z,4.30
2018-01-20T10:13:35.946Z,5.30
2018-01-20T10:16:03.434Z,4.73
2018-01-20T10:18:31.711Z,5.00
2018-01-20T10:20:59.965Z,4.90
2018-01-20T10:23:27.449Z,4.70
2018-01-20T10:25:55.730Z,10.20
2018-01-20T10:28:23.218Z,5.20
2018-01-20T10:30:50.727Z,5.00
2018-01-20T10:33:18.214Z,5.23
2018-01-20T10:35:45.720Z,6.80
2018-01-20T10:38:13.201Z,5.67
2018-01-20T10:40:41.480Z,8.30
2018-01-20T10:43:09.734Z,5.03
2018-01-20T10:45:37.217Z,8.50
2018-01-20T10:48:05.485Z,4.73
2018-01-20T10:50:33.738Z,6.63
2018-01-20T10:53:01.257Z,13.63
2018-01-20T10:55:28.741Z,5.50
2018-01-20T10:57:56.225Z,10.57
2018-01-20T11:00:23.733Z,5.30
2018-01-20T11:02:51.224Z,8.50
2018-01-20T11:05:18.733Z,4.63
2018-01-20T11:07:46.981Z,6.80
2018-01-20T11:10:14.480Z,4.53
2018-01-20T11:12:41.985Z,4.40
2018-01-20T11:15:09.465Z,3.90
2018-01-20T11:17:37.745Z,5.60
2018-01-20T11:20:05.998Z,3.27
2018-01-20T11:22:34.253Z,3.70
2018-01-20T11:25:01.757Z,7.60
2018-01-20T11:27:30.007Z,4.70
2018-01-20T11:29:57.513Z,3.80
2018-01-20T11:32:25.001Z,3.63
2018-01-20T11:34:52.485Z,4.10
2018-01-20T11:37:19.990Z,3.97
2018-01-20T11:39:47.477Z,5.57
2018-01-20T11:42:14.987Z,3.23
2018-01-20T11:44:43.269Z,5.90
2018-01-20T11:47:11.513Z,3.77
2018-01-20T11:49:39.014Z,3.53
2018-01-20T11:52:06.521Z,4.57
2018-01-20T11:54:34.039Z,3.27
2018-01-20T11:57:01.534Z,5.40
2018-01-20T11:59:29.363Z,5.13
2018-01-20T12:01:56.858Z,5.13
2018-01-20T12:04:24.361Z,8.43
2018-01-20T12:06:51.853Z,5.00
2018-01-20T12:09:19.337Z,8.43
2018-01-20T12:11:46.841Z,5.90
2018-01-20T12:14:14.329Z,11.50
2018-01-20T12:16:41.833Z,4.10
2018-01-20T12:19:10.090Z,10.57
2018-01-20T12:21:37.574Z,4.17
2018-01-20T12:24:05.849Z,5.60
2018-01-20T12:26:34.098Z,3.80
2018-01-20T12:29:01.606Z,7.90
2018-01-20T12:31:29.097Z,4.53
2018-01-20T12:33:56.589Z,3.70
2018-01-20T12:36:24.103Z,4.57
2018-01-20T12:38:51.601Z,6.97
2018-01-20T12:41:19.113Z,3.97
2018-01-20T12:43:46.593Z,6.27
2018-01-20T12:46:14.077Z,4.67
2018-01-20T12:48:43.089Z,3.90
2018-01-20T12:51:11.362Z,9.70
2018-01-20T12:53:39.634Z,6.87
2018-01-20T12:56:07.885Z,5.03
2018-01-20T12:58:35.395Z,7.00
2018-01-20T13:01:02.882Z,4.13
2018-01-20T13:03:30.366Z,7.60
2018-01-20T13:05:59.381Z,5.03
2018-01-20T13:08:27.629Z,4.60
2018-01-20T13:10:55.139Z,4.20
2018-01-20T13:13:22.621Z,5.50
2018-01-20T13:15:50.106Z,5.67
2018-01-20T13:18:17.609Z,4.97
2018-01-20T13:20:45.105Z,6.30
2018-01-20T13:23:12.618Z,5.00
2018-01-20T13:25:40.105Z,5.83
2018-01-20T13:28:07.588Z,9.30
2018-01-20T13:30:35.094Z,5.30
2018-01-20T13:33:02.585Z,4.63
2018-01-20T13:35:30.095Z,6.10
2018-01-20T13:37:58.341Z,4.73
2018-01-20T13:40:25.845Z,3.03
2018-01-20T13:42:53.334Z,3.93
2018-01-20T13:45:20.817Z,5.00
2018-01-20T13:47:48.326Z,3.20
2018-01-20T13:50:15.809Z,3.93
2018-01-20T13:52:43.318Z,4.57
2018-01-20T13:55:11.566Z,3.30
2018-01-20T13:57:39.053Z,2.83
2018-01-20T14:00:07.330Z,3.00
2018-01-20T14:02:35.577Z,4.07
2018-01-20T14:05:03.089Z,2.73
2018-01-20T14:07:30.573Z,3.20
2018-01-20T14:09:58.080Z,2.97
2018-01-20T14:12:26.338Z,3.57
2018-01-20T14:14:53.821Z,3.43
2018-01-20T14:17:22.093Z,3.23
2018-01-20T14:19:50.341Z,3.03
2018-01-20T14:22:17.846Z,3.60
2018-01-20T14:24:45.337Z,3.67
2018-01-20T14:27:12.846Z,3.57
2018-01-20T14:29:41.097Z,3.37
2018-01-20T14:32:08.583Z,3.50
2018-01-20T14:34:36.089Z,3.37
2018-01-20T14:37:03.573Z,3.70
2018-01-20T14:39:31.090Z,3.20
2018-01-20T14:41:58.574Z,3.30
2018-01-20T14:44:26.057Z,3.87
2018-01-20T14:46:54.329Z,3.40
2018-01-20T14:49:21.815Z,3.60
2018-01-20T14:51:49.328Z,3.20
2018-01-20T14:54:16.818Z,3.27
2018-01-20T14:56:45.089Z,3.70
2018-01-20T14:59:13.342Z,2.80
2018-01-20T15:01:40.825Z,3.50
2018-01-20T15:04:09.101Z,3.73
2018-01-20T15:06:37.353Z,3.90
2018-01-20T15:09:04.862Z,3.57
2018-01-20T15:11:32.349Z,3.10
2018-01-20T15:13:59.861Z,4.83
2018-01-20T15:16:27.346Z,3.47
2018-01-20T15:18:54.855Z,3.33
2018-01-20T15:21:23.114Z,4.13
2018-01-20T15:23:50.609Z,3.27
2018-01-20T15:26:18.885Z,3.83
2018-01-20T15:28:47.137Z,3.27
2018-01-20T15:31:14.649Z,4.10
2018-01-20T15:33:42.133Z,4.17
2018-01-20T15:36:09.617Z,4.33
2018-01-20T15:38:37.894Z,5.60
2018-01-20T15:41:06.160Z,4.83
2018-01-20T15:43:33.665Z,5.30
2018-01-20T15:46:01.162Z,5.53
2018-01-20T15:48:28.669Z,5.90
2018-01-20T15:50:56.158Z,6.20
2018-01-20T15:53:23.645Z,5.73
2018-01-20T15:55:51.161Z,7.70
2018-01-20T15:58:18.649Z,7.77
2018-01-20T16:00:46.172Z,8.10
2018-01-20T16:03:13.661Z,8.63
2018-01-20T16:05:41.174Z,9.37
2018-01-20T16:08:08.665Z,10.27
2018-01-20T16:10:36.146Z,8.00
2018-01-20T16:13:03.665Z,8.63
2018-01-20T16:15:31.157Z,9.53
2018-01-20T16:17:58.670Z,13.57
2018-01-20T16:20:26.170Z,10.63
2018-01-20T16:22:53.684Z,10.67
2018-01-20T16:25:21.172Z,11.17
2018-01-20T16:27:48.726Z,9.33
2018-01-20T16:30:16.235Z,10.63
2018-01-20T16:32:43.713Z,10.47
2018-01-20T16:35:11.221Z,9.83
2018-01-20T16:37:38.705Z,9.80
2018-01-20T16:40:06.217Z,8.03
2018-01-20T16:42:33.701Z,8.60
2018-01-20T16:45:01.194Z,8.57
2018-01-20T16:47:29.469Z,8.97
2018-01-20T16:49:57.718Z,9.07
2018-01-20T16:52:25.245Z,10.37
2018-01-20T16:54:52.734Z,12.50
2018-01-20T16:57:20.261Z,11.50
2018-01-20T16:59:47.745Z,10.33
2018-01-20T17:02:15.233Z,10.53
2018-01-20T17:04:43.517Z,10.40
2018-01-20T17:07:11.765Z,10.57
2018-01-20T17:09:39.277Z,11.30
2018-01-20T17:12:06.779Z,10.63
2018-01-20T17:14:34.266Z,10.97
2018-01-20T17:17:01.783Z,12.30
2018-01-20T17:19:29.658Z,14.70
2018-01-20T17:21:57.189Z,12.70
2018-01-20T17:24:24.686Z,14.43
2018-01-20T17:26:52.202Z,13.10
2018-01-20T17:29:19.699Z,13.97
2018-01-20T17:31:47.213Z,12.77
2018-01-20T17:34:14.705Z,13.30
2018-01-20T17:36:42.202Z,14.47
2018-01-20T17:39:09.721Z,13.20
2018-01-20T17:41:37.205Z,15.27
2018-01-20T17:44:05.484Z,12.70
2018-01-20T17:46:33.746Z,14.43
2018-01-20T17:49:01.257Z,13.30
2018-01-20T17:51:28.745Z,17.30
2018-01-20T17:53:56.242Z,16.97
2018-01-20T17:56:24.526Z,16.80
2018-01-20T17:58:52.787Z,17.10
2018-01-20T18:01:21.070Z,17.13
2018-01-20T18:03:49.330Z,20.97
2018-01-20T18:06:16.837Z,17.60
2018-01-20T18:08:44.349Z,15.97
2018-01-20T18:11:11.837Z,14.53
2018-01-20T18:13:39.411Z,15.70
2018-01-20T18:16:07.645Z,16.20
2018-01-20T18:18:35.898Z,17.63
2018-01-20T18:21:03.418Z,84.53
2018-01-20T18:23:30.929Z,16.90
2018-01-20T18:25:58.413Z,16.43
2018-01-20T18:28:25.906Z,17.47
2018-01-20T18:30:53.414Z,16.90
2018-01-20T18:33:21.669Z,17.03
2018-01-20T18:35:49.182Z,17.13
2018-01-20T18:38:16.677Z,18.93
2018-01-20T18:40:44.198Z,18.80
2018-01-20T18:43:11.689Z,18.60
2018-01-20T18:45:39.186Z,17.80
2018-01-20T18:48:07.462Z,18.13
2018-01-20T18:50:35.722Z,15.83
2018-01-20T18:53:03.237Z,15.60
2018-01-20T18:55:30.733Z,16.17
2018-01-20T18:57:59.758Z,15.40
2018-01-20T19:00:28.021Z,18.10
2018-01-20T19:02:56.302Z,15.83
2018-01-20T19:05:24.557Z,19.60
2018-01-20T19:07:53.558Z,18.90
2018-01-20T19:10:21.075Z,19.27
2018-01-20T19:12:48.582Z,18.83
2018-01-20T19:15:16.869Z,17.90
2018-01-20T19:17:45.134Z,20.60
2018-01-20T19:20:13.413Z,23.83
2018-01-20T19:22:41.673Z,37.27
2018-01-20T19:25:10.694Z,52.57
2018-01-20T19:27:38.949Z,34.60
2018-01-20T19:30:06.465Z,29.27
2018-01-20T19:32:33.953Z,25.93
2018-01-20T19:35:01.452Z,23.10
2018-01-20T19:37:28.973Z,46.60
2018-01-20T19:39:56.469Z,20.67
2018-01-20T19:42:23.982Z,19.63
2018-01-20T19:44:51.487Z,25.10
2018-01-20T19:47:19.010Z,25.00
2018-01-20T19:49:46.501Z,25.13
2018-01-20T19:52:14.910Z,23.30
2018-01-20T19:54:42.401Z,25.50
2018-01-20T19:57:09.903Z,26.73
2018-01-20T19:59:37.421Z,33.00
2018-01-20T20:02:05.677Z,30.17
2018-01-20T20:04:33.190Z,33.27
2018-01-20T20:07:00.685Z,30.63
2018-01-20T20:09:28.197Z,32.60
2018-01-20T20:11:56.454Z,29.00
2018-01-20T20:14:23.953Z,30.43
2018-01-20T20:16:51.474Z,29.70
2018-01-20T20:19:18.971Z,28.00
2018-01-20T20:21:46.490Z,30.00
2018-01-20T20:24:13.979Z,30.20
2018-01-20T20:26:41.498Z,25.90
2018-01-20T20:29:08.989Z,27.03
2018-01-20T20:31:37.245Z,30.13
2018-01-20T20:34:04.773Z,30.50
2018-01-20T20:36:32.266Z,30.37
2018-01-20T20:39:00.549Z,31.10
2018-01-20T20:41:28.808Z,31.43
2018-01-20T20:43:56.317Z,37.80
2018-01-20T20:46:23.809Z,37.60
2018-01-20T20:48:51.321Z,39.13
2018-01-20T20:51:18.821Z,37.37
2018-01-20T20:53:46.341Z,38.57
2018-01-20T20:56:13.838Z,37.33
2018-01-20T20:58:41.325Z,37.87
2018-01-20T21:01:09.606Z,38.13
2018-01-20T21:03:37.868Z,37.30
2018-01-20T21:06:05.381Z,38.70
2018-01-20T21:08:32.869Z,34.80
2018-01-20T21:11:00.384Z,32.77
2018-01-20T21:13:27.869Z,33.23
2018-01-20T21:15:55.368Z,31.43
2018-01-20T21:18:23.649Z,37.40
2018-01-20T21:20:51.905Z,32.87
2018-01-20T21:23:19.421Z,29.40
2018-01-20T21:25:46.909Z,31.63
2018-01-20T21:28:14.417Z,30.23
2018-01-20T21:30:41.910Z,34.20
2018-01-20T21:33:09.425Z,35.10
2018-01-20T21:35:37.687Z,30.50
2018-01-20T21:38:05.963Z,34.17
2018-01-20T21:40:34.221Z,34.10
2018-01-20T21:43:01.718Z,37.53
2018-01-20T21:45:29.229Z,35.57
2018-01-20T21:47:56.721Z,37.70
2018-01-20T21:50:25.002Z,37.80
2018-01-20T21:52:52.498Z,37.00
2018-01-20T21:55:20.014Z,37.57
2018-01-20T21:57:48.270Z,36.63
2018-01-20T22:00:15.781Z,33.83
2018-01-20T22:02:43.273Z,39.20
2018-01-20T22:05:10.761Z,37.53
2018-01-20T22:07:39.038Z,35.97
2018-01-20T22:10:07.289Z,35.57
2018-01-20T22:12:34.798Z,35.90
2018-01-20T22:15:02.289Z,37.50
2018-01-20T22:17:29.777Z,31.40
2018-01-20T22:19:57.285Z,84.03
2018-01-20T22:22:24.773Z,31.27
2018-01-20T22:24:52.290Z,34.10
2018-01-20T22:27:19.786Z,36.80
2018-01-20T22:29:47.297Z,36.13
2018-01-20T22:32:14.789Z,35.67
2018-01-20T22:34:42.297Z,37.57
2018-01-20T22:37:10.558Z,33.17
2018-01-20T22:39:38.050Z,35.93
2018-01-20T22:42:05.569Z,32.87
2018-01-20T22:44:33.065Z,33.97
2018-01-20T22:47:00.586Z,34.10
2018-01-20T22:49:28.082Z,30.60
2018-01-20T22:51:55.569Z,31.90
2018-01-20T22:54:23.077Z,32.00
2018-01-20T22:56:51.338Z,32.90
2018-01-20T22:59:18.845Z,35.37
2018-01-20T23:01:46.338Z,32.10
2018-01-20T23:04:13.858Z,30.97
2018-01-20T23:06:41.353Z,36.43
2018-01-20T23:09:08.874Z,35.00
2018-01-20T23:11:36.365Z,30.93
2018-01-20T23:14:03.882Z,35.20
2018-01-20T23:16:31.374Z,36.20
2018-01-20T23:18:58.865Z,33.17
2018-01-20T23:21:26.377Z,37.80
2018-01-20T23:23:53.872Z,34.87
2018-01-20T23:26:21.382Z,29.07
2018-01-20T23:28:48.878Z,34.20
2018-01-20T23:31:16.395Z,34.30
2018-01-20T23:33:43.885Z,33.37
2018-01-20T23:36:11.373Z,29.30
2018-01-20T23:38:38.882Z,30.00
2018-01-20T23:41:06.374Z,30.13
2018-01-20T23:43:33.897Z,30.67
2018-01-20T23:46:01.398Z,32.47
2018-01-20T23:48:28.909Z,30.37
2018-01-20T23:50:56.401Z,31.53
2018-01-20T23:53:23.894Z,31.13
2018-01-20T23:55:52.173Z,32.60
2018-01-20T23:58:20.429Z,30.10
